Station CAVN6 - 9052000 - Cape Vincent, NY Image indicating link to RSS feed of recent meteorological observations for station CAVN6


Conditions at CAVN6 as of
(1:18 pm EDT)
1718 GMT on 08/31/2026:
     

Click on the graph icon in the table below to see a time series plot of the last five days of that observation.

5-day plot - Wind Direction Wind Direction (WDIR): S ( 180 deg true )
5-day plot - Wind Speed Wind Speed (WSPD): 1.9 kts
5-day plot - Wind Gust Wind Gust (GST): 6.0 kts
5-day plot - Atmospheric Pressure Atmospheric Pressure (PRES):30.09 in
5-day plot - Water Temperature Water Temperature (WTMP): 72.0 °F
5-day plot - Wind Speed at 10 Meters Wind Speed at 10 meters (WSPD10M): 1.9 kts
5-day plot - Wind Speed at 20 Meters Wind Speed at 20 meters (WSPD20M): 1.9 kts
5-day plot -  Wind Speed, Wind Gust and Atmospheric Pressure Combined plot of Wind Speed, Gust, and Air Pressure
NOS Water Level Observation Network Water Level
Previous observations
TIME
(EDT)
5-day plot - Wind Direction
WDIR
 
5-day plot - Wind Speed
WSPD
kts
5-day plot - Wind Gust
GST
kts
5-day plot - Wave Height
WVHT
ft
5-day plot - Dominant Wave Period
DPD
sec
5-day plot - Average Wave Period
APD
sec
5-day plot - Mean Wave Direction
MWD
 
5-day plot - Atmospheric Pressure
PRES
in
5-day plot - Pressure Tendency
PTDY
in
5-day plot - Air Temperature
ATMP
°F
5-day plot - Water Temperature
WTMP
°F
5-day plot - Dew Point
DEWP
°F
5-day plot - Salinity
SAL
psu
5-day plot - Visibility
VIS
nmi
5-day plot - Tide (above MLLW)
TIDE
ft
2026-08-31 01:12 pm S 4.1 7.0----30.09-- 72.0----
2026-08-31 01:06 pm S 5.1 7.0----30.09-- 72.0----
2026-08-31 01:00 pmSSW 4.1 8.0----30.09+0.00 73.0 72.0 66.0---
2026-08-31 12:54 pmSSW 2.9 5.1----30.09- 73.0 72.0 66.4---
2026-08-31 12:48 pm S 1.0 2.9----30.09- 72.1 72.0 65.7---
2026-08-31 12:42 pm S 1.9 5.1----30.09- 71.8 72.0 65.3---
2026-08-31 12:36 pm S 2.9 5.1----30.09- 71.6 72.0 65.3---
2026-08-31 12:30 pmSSW 2.9 5.1----30.09- 71.4 71.8 65.3---
2026-08-31 12:24 pm SW 1.0 5.1----30.09- 71.2 71.8 65.3---
2026-08-31 12:18 pmSSW 2.9 5.1----30.09-- 71.8----
2026-08-31 12:12 pm S 1.9 6.0----30.09-- 71.8----
2026-08-31 12:06 pm S 1.9 6.0----30.09-- 71.8----
2026-08-31 12:00 pmSSW 1.9 5.1----30.09+0.00 70.7 71.8 65.7---
2026-08-31 11:54 am S 2.9 5.1----30.09- 70.7 71.8 65.7---
2026-08-31 11:48 am S 2.9 6.0----30.09- 71.1 71.8 65.8---
2026-08-31 11:42 amSSW 1.0 5.1----30.09- 70.9 71.8 65.5---
2026-08-31 11:36 amSSW 1.9 2.9----30.09- 70.9 71.8 65.7---
2026-08-31 11:30 am S 1.9 4.1----30.09- 70.7 71.8 65.5---
2026-08-31 11:24 am S 1.9 4.1----30.09- 70.7 71.8 65.1---
2026-08-31 11:18 am S 1.9 6.0----30.09-- 71.8----
2026-08-31 11:12 am S 1.9 6.0----30.09-- 71.8----
2026-08-31 11:06 am S 2.9 6.0----30.09-- 71.8----
2026-08-31 11:00 amSSW 1.9 2.9----30.09+0.00 70.9 71.8 65.7---
2026-08-31 10:54 am S 1.9 5.1----30.09- 70.9 71.8 65.8---
2026-08-31 10:48 am S 1.9 4.1----30.09- 70.9 71.8 66.4---
2026-08-31 10:42 am S 1.9 5.1----30.09- 70.7 71.8 66.2---
2026-08-31 10:36 am S 1.9 2.9----30.09- 70.5 71.8 66.2---
2026-08-31 10:30 am S 1.0 4.1----30.09- 70.5 71.8 66.2---
2026-08-31 10:24 amSSE 1.0 4.1----30.09- 70.5 71.8 66.6---
2026-08-31 10:18 am S 2.9 7.0----30.09-- 71.8----
2026-08-31 10:12 amSSE 1.9 6.0----30.09-- 71.8----
2026-08-31 10:06 amSSW 4.1 6.0----30.09-- 71.8----
2026-08-31 10:00 amSSW 1.9 7.0----30.09+0.00 71.2 71.8 66.2---
2026-08-31 09:54 am SW 2.9 5.1----30.09- 71.4 71.8 67.1---
2026-08-31 09:48 am S 2.9 5.1----30.09-- 71.8----
2026-08-31 09:42 am S 2.9 7.0----30.09-- 71.8----
2026-08-31 09:36 amSSE 1.9 6.0----30.09-- 71.8----
2026-08-31 09:30 amSSW 2.9 6.0----30.09- 70.9 71.8 66.6---
2026-08-31 09:24 am S 1.9 4.1----30.09- 70.5 71.8 66.2---
2026-08-31 09:18 am S 2.9 5.1----30.09-- 71.8----
2026-08-31 09:12 am SE 1.9 7.0----30.09-- 71.8----
2026-08-31 09:06 amSSE 1.9 4.1----30.09-- 71.8----
2026-08-31 09:00 am S 1.0 5.1----30.09+0.00 70.3 71.8 66.4---
2026-08-31 08:54 amSSE 1.9 5.1----30.09- 70.0 71.8 66.4---
2026-08-31 08:48 am S 1.9 5.1----30.09-- 71.8----
2026-08-31 08:42 amESE 4.1 6.0----30.09-- 71.8----
2026-08-31 08:36 amESE 4.1 5.1----30.09-- 71.8----
2026-08-31 08:30 amESE 1.9 2.9----30.09- 69.4 71.8 66.2---
2026-08-31 08:24 amESE 1.9 5.1----30.09- 68.9 71.8 66.0---
2026-08-31 08:18 amESE 2.9 5.1----30.09-- 71.8----
2026-08-31 08:12 am SE 1.9 5.1----30.09-- 71.8----
2026-08-31 08:06 amESE 2.9 6.0----30.09-- 71.8----
2026-08-31 08:00 amESE 2.9 4.1----30.09+0.03 66.4 71.8 64.6---
2026-08-31 07:54 am E 1.9 2.9----30.09- 65.5 71.8 64.0---
2026-08-31 07:48 am SE 1.9 4.1----30.09-- 71.8----
2026-08-31 07:42 amESE 2.9 4.1----30.09-- 71.8----
2026-08-31 07:36 amESE 2.9 4.1----30.09-- 71.8----
2026-08-31 07:30 am SE 1.9 5.1----30.09- 64.8 71.8 63.7---
2026-08-31 07:24 am SE 1.9 4.1----30.09- 64.4 71.8 63.3---
2026-08-31 07:18 am SE 4.1 6.0----30.09-- 71.8----
2026-08-31 07:12 am SE 4.1 6.0----30.09-- 71.8----
2026-08-31 07:06 am S 1.0 1.9----30.09-- 71.8----
2026-08-31 07:00 am S 1.0 1.9----30.09+0.00 64.6 71.8 63.1---
2026-08-31 06:54 am E 1.9 1.9----30.09- 64.6 71.8 63.5---
2026-08-31 06:48 amESE 1.0 2.9----30.09- 64.6 71.8 63.3---
2026-08-31 06:42 am- 0.0 1.9----30.09- 64.8 71.8 63.5---
2026-08-31 06:36 amSSE 1.0 1.0----30.09- 64.6 71.8 63.1---
2026-08-31 06:30 am- 0.0 1.0----30.09- 65.3 71.8 64.2---
2026-08-31 06:24 am- 0.0 0.0----30.09- 64.9 71.8 63.9---
2026-08-31 06:18 am- 0.0 1.0----30.09-- 71.8----
2026-08-31 06:12 am- 0.0 1.9----30.09-- 71.8----
2026-08-31 06:06 am S 1.0 1.9----30.09-- 71.8----
2026-08-31 06:00 am- 0.0 1.0----30.09+0.00 64.8 71.8 63.3---
2026-08-31 05:54 am E 1.0 1.9----30.09- 65.3 71.8 64.2---
2026-08-31 05:48 am E 1.9 1.9----30.09- 65.7 71.8 64.6---
2026-08-31 05:42 am- 0.0 1.0----30.09- 65.1 71.8 63.7---
2026-08-31 05:36 am- 0.0 1.0----30.09- 65.5 71.8 64.4---
2026-08-31 05:30 am- 0.0 1.9----30.09- 65.1 71.8 64.0---
2026-08-31 05:24 amSSW 1.0 1.9----30.09- 64.9 71.8 63.5---
2026-08-31 05:18 am S 1.0 1.9----30.06-- 72.0----
2026-08-31 05:12 am S 1.9 1.9----30.06-- 72.0----
2026-08-31 05:06 am- 0.0 1.9----30.06-- 72.0----
2026-08-31 05:00 amESE 1.9 2.9----30.06-0.03 65.7 72.0 63.9---
2026-08-31 04:54 am E 1.9 1.9----30.09- 66.4 72.0 64.6---
2026-08-31 04:48 am- 0.0 1.0----30.09- 66.2 72.0 64.4---
2026-08-31 04:42 am- 0.0 1.0----30.09- 66.6 72.0 64.8---
2026-08-31 04:36 am- 0.0 1.0----30.09- 66.4 72.0 64.8---
2026-08-31 04:30 am- 0.0 0.0----30.09- 66.4 72.0 64.9---
2026-08-31 04:24 am- 0.0 1.0----30.09- 65.5 72.0 63.7---
2026-08-31 04:18 am- 0.0 1.0----30.09-- 72.0----
2026-08-31 04:12 am- 0.0 1.0----30.09-- 72.0----
2026-08-31 04:06 am S 1.0 1.0----30.09-- 72.0----
2026-08-31 04:00 am S 1.0 1.9----30.09+0.00 66.0 72.0 64.2---
2026-08-31 03:54 am S 1.0 1.0----30.06- 66.0 72.0 64.0---
2026-08-31 03:48 am E 1.0 1.9----30.06- 66.2 72.0 64.2---
2026-08-31 03:42 am E 1.0 1.0----30.09- 66.7 72.0 64.4---
2026-08-31 03:36 am- 0.0 1.0----30.09- 66.7 72.0 64.4---
2026-08-31 03:30 am- 0.0 0.0----30.09- 66.7 72.0 64.2---
2026-08-31 03:24 am- 0.0 0.0----30.09- 66.7 72.0 64.0---
2026-08-31 03:18 am- 0.0 0.0----30.09- 66.7 72.0 64.0---
2026-08-31 03:12 am- 0.0 0.0----30.09- 66.9 72.0 64.2---
2026-08-31 03:06 am- 0.0 1.0----30.09- 67.3 72.0 64.6---
2026-08-31 03:00 am- 0.0 1.0----30.09+0.00 67.3 72.0 64.6---
2026-08-31 02:54 am- 0.0 1.0----30.09- 67.3 72.0 64.6---
2026-08-31 02:48 am- 0.0 1.0----30.09- 67.3 72.0 64.9---
2026-08-31 02:42 am- 0.0 1.0----30.09- 67.1 72.0 64.8---
2026-08-31 02:36 am- 0.0 1.0----30.09- 66.9 72.0 64.2---
2026-08-31 02:30 am- 0.0 0.0----30.09-- 72.0----
2026-08-31 02:24 am- 0.0 0.0----30.09-- 72.0----
2026-08-31 02:18 am--------- 67.3- 64.6---
2026-08-31 02:12 am--------- 67.1- 64.4---
2026-08-31 02:06 am--------- 67.1- 64.4---
2026-08-31 02:00 amSSW 1.0 1.0----30.09+0.00 67.3 72.0 64.6---
2026-08-31 01:54 am- 0.0 1.0----30.09- 67.3 72.0 64.6---
2026-08-31 01:48 am- 0.0 1.0----30.09- 67.3 72.0 64.4---
2026-08-31 01:42 am- 0.0 0.0----30.09- 67.3 72.0 64.6---
2026-08-31 01:36 am- 0.0 1.0----30.09- 67.3 72.0 64.6---
2026-08-31 01:30 am- 0.0 1.0----30.09- 67.5 72.0 64.4---
2026-08-31 01:24 am SW 1.0 1.0----30.09- 67.5 72.0 64.4---
2026-08-31 01:18 am- 0.0 1.0----30.09-- 72.0----
2026-08-31 01:12 amSSW 1.0 1.9----30.09-- 72.0----
2026-08-31 01:06 am- 0.0 1.0----30.09-- 72.0----
2026-08-31 01:00 amSSW 1.0 1.9----30.09+0.00 68.0 72.0 64.8---
2026-08-31 12:54 am SW 1.0 1.9----30.09- 68.2 72.0 64.9---
2026-08-31 12:48 am W 1.0 1.9----30.09- 68.2 72.0 64.9---
2026-08-31 12:42 am W 1.9 2.9----30.09- 68.4 72.0 65.1---
2026-08-31 12:36 amWNW 1.9 4.1----30.09- 68.4 72.0 65.1---
2026-08-31 12:30 am W 1.9 2.9----30.09- 68.4 72.0 64.9---
2026-08-31 12:24 am W 1.0 1.9----30.09- 68.5 72.0 64.9---
2026-08-31 12:18 am W 1.9 2.9----30.09- 68.5 72.0 65.1---
2026-08-31 12:12 amWNW 1.9 2.9----30.09- 68.7 72.0 65.5---
2026-08-31 12:06 am W 2.9 5.1----30.09- 68.7 72.0 65.3---
2026-08-31 12:00 am W 5.1 5.1----30.09+0.03 68.7 72.1 65.5---
2026-08-30 11:54 pm W 2.9 5.1----30.09- 68.7 72.1 65.5---
2026-08-30 11:48 pm W 2.9 5.1----30.09- 68.7 72.1 65.5---
2026-08-30 11:42 pm- 0.0 5.1----30.09- 68.7 72.1 65.5---
2026-08-30 11:36 pm W 5.1 7.0----30.09- 68.9 72.1 65.8---
2026-08-30 11:30 pm W 6.0 7.0----30.09- 68.7 72.1 65.5---
2026-08-30 11:24 pm W 7.0 8.0----30.09- 68.9 72.1 65.7---
2026-08-30 11:18 pm W 7.0 8.0----30.09- 68.9 72.1 65.7---
2026-08-30 11:12 pm W 7.0 8.0----30.09- 68.7 72.1 65.3---
2026-08-30 11:06 pm W 7.0 8.9----30.09- 68.9 72.1 65.3---
2026-08-30 11:00 pm W 8.0 11.1----30.09+0.06 68.9 72.1 65.5---
2026-08-30 10:54 pm W 7.0 8.9----30.09- 68.9 72.1 65.7---
2026-08-30 10:48 pm W 7.0 8.0----30.09- 68.9 72.1 65.7---
2026-08-30 10:42 pm W 6.0 8.0----30.09- 69.1 72.1 65.8---
2026-08-30 10:36 pm W 5.1 7.0----30.09- 68.9 72.1 65.3---
2026-08-30 10:30 pm W 6.0 8.0----30.09- 69.1 72.1 65.7---
2026-08-30 10:24 pm W 6.0 8.0----30.09- 69.1 72.1 65.5---
2026-08-30 10:18 pm W 6.0 8.0----30.09-- 72.1----
2026-08-30 10:12 pm W 6.0 8.0----30.09-- 72.1----
2026-08-30 10:06 pm W 6.0 7.0----30.09-- 72.1----
2026-08-30 10:00 pm W 6.0 8.0----30.09+0.06 69.4 72.1 65.7---
2026-08-30 09:54 pm W 6.0 7.0----30.06- 69.4 72.1 65.7---
2026-08-30 09:48 pm W 5.1 6.0----30.06- 69.6 72.1 65.5---
2026-08-30 09:42 pm W 4.1 7.0----30.06- 69.6 72.1 65.7---
2026-08-30 09:36 pmWSW 4.1 8.9----30.06- 69.6 72.1 65.5---
2026-08-30 09:30 pmWSW 5.1 8.9----30.06- 69.6 72.1 65.7---
2026-08-30 09:24 pm W 7.0 9.9----30.06- 69.6 72.1 65.3---
2026-08-30 09:18 pm W 8.0 11.1----30.06- 69.8 72.1 65.7---
2026-08-30 09:12 pm W 7.0 11.1----30.06- 69.8 72.1 65.5---
2026-08-30 09:06 pm W 9.9 12.0----30.06- 70.0 72.1 65.7---
2026-08-30 09:00 pm W 7.0 11.1----30.06+0.03 70.0 72.1 65.7---
2026-08-30 08:54 pmWSW 6.0 8.0----30.06- 70.0 72.1 65.7---
2026-08-30 08:48 pm W 7.0 11.1----30.06-- 72.1----
2026-08-30 08:42 pmWSW 6.0 12.0----30.06-- 72.3----
2026-08-30 08:36 pm W 8.9 13.0----30.06-- 72.3----
2026-08-30 08:30 pmWSW 7.0 12.0----30.06- 70.0 72.3 65.7---
2026-08-30 08:24 pmWSW 7.0 11.1----30.06- 70.0 72.3 65.5---
2026-08-30 08:18 pmWSW 6.0 8.0----30.06-- 72.3----
2026-08-30 08:12 pmWSW 6.0 9.9----30.06-- 72.3----
2026-08-30 08:06 pmWSW 6.0 12.0----30.06-- 72.3----
2026-08-30 08:00 pm W 8.0 11.1----30.03+0.00- 72.3----
2026-08-30 07:54 pmWSW 6.0 12.0----30.03-- 72.3----
2026-08-30 07:48 pm W 8.0 12.0----30.03-- 72.3----
2026-08-30 07:42 pm W 6.0 12.0----30.03-- 72.3----
2026-08-30 07:36 pm W 7.0 11.1----30.03-- 72.3----
2026-08-30 07:30 pm W 7.0 9.9----30.03- 70.2 72.3 65.1---
2026-08-30 07:24 pm W 8.9 11.1----30.03- 70.2 72.3 65.3---
2026-08-30 07:18 pm W 8.9 13.0----30.03-- 72.3----
2026-08-30 07:12 pm W 8.0 9.9----30.03-- 72.3----
2026-08-30 07:06 pm W 7.0 12.0----30.03-- 72.3----
2026-08-30 07:00 pm W 8.0 14.0----30.03+0.00 70.0 72.3 65.3---
2026-08-30 06:54 pm W 8.0 11.1----30.03- 70.0 72.3 65.7---
2026-08-30 06:48 pmWSW 4.1 8.0----30.03- 69.6 72.3 65.7---
2026-08-30 06:42 pm W 5.1 9.9----30.03- 69.4 72.3 65.3---
2026-08-30 06:36 pmWSW 5.1 8.9----30.03- 69.4 72.3 65.5---
2026-08-30 06:30 pm W 8.0 12.0----30.03- 69.6 72.3 65.3---
2026-08-30 06:24 pmWSW 4.1 8.9----30.06- 69.6 72.3 65.1---
2026-08-30 06:18 pmWSW 5.1 12.0----30.03-- 72.3----
2026-08-30 06:12 pm W 6.0 12.0----30.03-- 72.3----
2026-08-30 06:06 pm W 8.9 11.1----30.03-- 72.3----
2026-08-30 06:00 pm W 8.0 11.1----30.03-0.03 69.6 72.3 65.1---
2026-08-30 05:54 pm W 7.0 12.0----30.03- 68.7 72.3 64.4---
2026-08-30 05:48 pmWSW 5.1 7.0----30.03- 68.4 72.3 64.4---
2026-08-30 05:42 pmWSW 4.1 8.0----30.03- 68.0 72.3 64.4---
2026-08-30 05:36 pmWSW 5.1 8.9----30.03- 67.8 72.3 64.4---
2026-08-30 05:30 pmWSW 7.0 9.9----30.03- 67.6 72.3 64.6---
2026-08-30 05:24 pmWSW 6.0 9.9----30.03- 68.4 72.3 64.9---
2026-08-30 05:18 pmWSW 8.0 14.0----30.03-- 72.3----
2026-08-30 05:12 pmWSW 5.1 9.9----30.03-- 72.3----
2026-08-30 05:06 pmWSW 7.0 8.9----30.03-- 72.3----
2026-08-30 05:00 pmWSW 6.0 8.0----30.03-0.03 70.0 72.3 64.0---
2026-08-30 04:54 pmWSW 5.1 8.0----30.03- 70.2 72.3 64.0---
2026-08-30 04:48 pmWSW 4.1 6.0----30.03- 70.2 72.3 64.6---
2026-08-30 04:42 pmWSW 2.9 7.0----30.03- 70.2 72.3 64.6---
2026-08-30 04:36 pmWSW 4.1 7.0----30.03- 70.3 72.3 64.9---
2026-08-30 04:30 pmWSW 4.1 8.0----30.03- 70.0 72.3 64.8---
2026-08-30 04:24 pmWSW 4.1 6.0----30.03- 70.2 72.3 65.1---
2026-08-30 04:18 pm SW 2.9 5.1----30.03-- 72.3----
2026-08-30 04:12 pmWSW 2.9 5.1----30.03-- 72.3----
2026-08-30 04:06 pmWSW 1.9 7.0----30.03-- 72.3----
2026-08-30 04:00 pmWSW 4.1 6.0----30.03-0.03 70.7 72.1 64.6---
2026-08-30 03:54 pmWSW 1.9 5.1----30.03- 70.5 72.3 63.9---
2026-08-30 03:48 pmWSW 2.9 6.0----30.03- 70.7 72.1 63.9---
2026-08-30 03:42 pm SW 1.9 5.1----30.03- 70.3 72.1 63.7---
2026-08-30 03:36 pm SW 2.9 5.1----30.03- 70.3 72.3 63.5---
2026-08-30 03:30 pm- 0.0 4.1----30.03- 69.6 72.1 63.0---
2026-08-30 03:24 pmWSW 1.9 4.1----30.03- 69.4 72.1 63.5---
2026-08-30 03:18 pmWSW 1.9 4.1----30.06-- 72.1----
2026-08-30 03:12 pm SW 1.0 2.9----30.06-- 72.1----
2026-08-30 03:06 pmWSW 1.0 4.1----30.06-- 72.1----
2026-08-30 03:00 pm W 1.9 5.1----30.06+0.00 68.4 72.1 63.0---
2026-08-30 02:54 pm W 4.1 5.1----30.06- 68.4 72.1 62.8---
2026-08-30 02:48 pm W 4.1 5.1----30.06- 68.4 72.1 63.1---
2026-08-30 02:42 pm W 2.9 5.1----30.06- 68.4 72.1 63.0---
2026-08-30 02:36 pmWNW 4.1 5.1----30.06- 68.5 72.1 62.4---
2026-08-30 02:30 pm W 5.1 7.0----30.06-- 72.1----
2026-08-30 02:24 pmWNW 4.1 5.1----30.06-- 72.1----
2026-08-30 02:18 pm NW 5.1 6.0----30.06-- 72.1----
2026-08-30 02:12 pmWNW 4.1 5.1----30.06-- 72.1----
2026-08-30 02:06 pmWNW 2.9 5.1----30.06-- 72.1----
2026-08-30 02:00 pm NW 4.1 6.0----30.06+0.00 69.1 72.1 62.6---
2026-08-30 01:54 pmWNW 5.1 6.0----30.06- 69.1 72.1 62.4---
2026-08-30 01:48 pm NW 4.1 5.1----30.06- 69.1 72.1 62.4---
2026-08-30 01:42 pmWNW 4.1 5.1----30.06- 69.1 72.1 62.8---
2026-08-30 01:36 pm W 5.1 6.0----30.06- 69.1 72.1 62.6---
2026-08-30 01:30 pmWNW 2.9 6.0----30.06- 69.1 72.1 62.4---
2026-08-30 01:24 pm W 5.1 7.0----30.06- 69.3 72.1 62.6---
2026-08-30 01:18 pm W 5.1 6.0----30.06- 69.1 72.1 62.2---
2026-08-30 01:12 pmWNW 4.1 6.0----30.06- 69.1 72.1 61.9---
2026-08-30 01:06 pm W 5.1 7.0----30.06- 69.1 72.1 62.4---
2026-08-30 01:00 pm W 5.1 6.0----30.06+0.00 69.1 72.1 62.8---
2026-08-30 12:54 pm W 5.1 7.0----30.06- 69.1 72.1 64.2---